sensor_id;sensor_type;location;lat;lon;timestamp;P1;durP1;ratioP1;P2;durP2;ratioP2
45762;SDS011;37512;52.408;13.356;2022-10-22T00:00:33;21.52;;;14.02;;
45762;SDS011;37512;52.408;13.356;2022-10-22T00:04:35;19.27;;;13.93;;
45762;SDS011;37512;52.408;13.356;2022-10-22T00:08:36;24.48;;;13.93;;
45762;SDS011;37512;52.408;13.356;2022-10-22T00:12:38;17.42;;;12.18;;
45762;SDS011;37512;52.408;13.356;2022-10-22T00:16:40;19.67;;;12.95;;
45762;SDS011;37512;52.408;13.356;2022-10-22T00:20:41;19.95;;;13.75;;
45762;SDS011;37512;52.408;13.356;2022-10-22T00:24:43;20.40;;;13.32;;
45762;SDS011;37512;52.408;13.356;2022-10-22T00:28:45;19.25;;;12.90;;
45762;SDS011;37512;52.408;13.356;2022-10-22T00:32:46;22.80;;;13.35;;
45762;SDS011;37512;52.408;13.356;2022-10-22T00:36:48;18.90;;;12.80;;
45762;SDS011;37512;52.408;13.356;2022-10-22T00:40:50;18.25;;;12.10;;
45762;SDS011;37512;52.408;13.356;2022-10-22T00:49:16;22.35;;;13.00;;
45762;SDS011;37512;52.408;13.356;2022-10-22T00:53:19;16.95;;;10.98;;
45762;SDS011;37512;52.408;13.356;2022-10-22T00:57:23;21.75;;;12.93;;
45762;SDS011;37512;52.408;13.356;2022-10-22T01:01:25;21.17;;;12.55;;
45762;SDS011;37512;52.408;13.356;2022-10-22T01:05:30;23.00;;;13.15;;
45762;SDS011;37512;52.408;13.356;2022-10-22T01:09:41;19.95;;;11.98;;
45762;SDS011;37512;52.408;13.356;2022-10-22T01:14:07;23.25;;;13.45;;
45762;SDS011;37512;52.408;13.356;2022-10-22T01:18:21;20.23;;;13.00;;
45762;SDS011;37512;52.408;13.356;2022-10-22T01:22:33;23.77;;;13.77;;
45762;SDS011;37512;52.408;13.356;2022-10-22T01:26:56;21.10;;;12.80;;
45762;SDS011;37512;52.408;13.356;2022-10-22T01:30:59;21.83;;;13.75;;
45762;SDS011;37512;52.408;13.356;2022-10-22T01:35:04;19.38;;;13.02;;
45762;SDS011;37512;52.408;13.356;2022-10-22T01:39:09;22.55;;;13.32;;
45762;SDS011;37512;52.408;13.356;2022-10-22T01:43:12;22.58;;;13.50;;
45762;SDS011;37512;52.408;13.356;2022-10-22T01:47:20;27.65;;;13.30;;
45762;SDS011;37512;52.408;13.356;2022-10-22T01:56:11;24.80;;;13.52;;
45762;SDS011;37512;52.408;13.356;2022-10-22T02:00:14;25.65;;;13.82;;
45762;SDS011;37512;52.408;13.356;2022-10-22T02:08:33;22.77;;;12.82;;
45762;SDS011;37512;52.408;13.356;2022-10-22T02:12:37;29.02;;;13.40;;
45762;SDS011;37512;52.408;13.356;2022-10-22T02:16:42;18.65;;;13.23;;
45762;SDS011;37512;52.408;13.356;2022-10-22T02:20:45;17.27;;;12.23;;
45762;SDS011;37512;52.408;13.356;2022-10-22T02:24:48;19.67;;;13.05;;
45762;SDS011;37512;52.408;13.356;2022-10-22T02:28:57;23.70;;;13.00;;
45762;SDS011;37512;52.408;13.356;2022-10-22T02:33:07;20.63;;;13.23;;
45762;SDS011;37512;52.408;13.356;2022-10-22T02:37:15;27.10;;;14.48;;
45762;SDS011;37512;52.408;13.356;2022-10-22T02:41:18;22.42;;;13.05;;
45762;SDS011;37512;52.408;13.356;2022-10-22T02:45:20;25.27;;;12.50;;
45762;SDS011;37512;52.408;13.356;2022-10-22T02:49:22;19.98;;;12.93;;
45762;SDS011;37512;52.408;13.356;2022-10-22T02:53:24;21.48;;;12.63;;
45762;SDS011;37512;52.408;13.356;2022-10-22T02:57:25;20.02;;;13.00;;
45762;SDS011;37512;52.408;13.356;2022-10-22T03:01:26;20.38;;;13.00;;
45762;SDS011;37512;52.408;13.356;2022-10-22T03:05:28;20.95;;;13.40;;
45762;SDS011;37512;52.408;13.356;2022-10-22T03:09:29;18.00;;;13.10;;
45762;SDS011;37512;52.408;13.356;2022-10-22T03:13:31;21.90;;;12.75;;
45762;SDS011;37512;52.408;13.356;2022-10-22T03:17:32;20.52;;;12.50;;
45762;SDS011;37512;52.408;13.356;2022-10-22T03:21:38;18.85;;;12.65;;
45762;SDS011;37512;52.408;13.356;2022-10-22T03:25:44;17.67;;;12.55;;
45762;SDS011;37512;52.408;13.356;2022-10-22T03:29:49;17.73;;;12.50;;
45762;SDS011;37512;52.408;13.356;2022-10-22T03:33:52;21.05;;;12.60;;
45762;SDS011;37512;52.408;13.356;2022-10-22T03:37:54;20.05;;;13.25;;
45762;SDS011;37512;52.408;13.356;2022-10-22T03:41:55;21.67;;;12.50;;
45762;SDS011;37512;52.408;13.356;2022-10-22T03:45:57;20.50;;;12.18;;
45762;SDS011;37512;52.408;13.356;2022-10-22T03:49:58;17.08;;;11.35;;
45762;SDS011;37512;52.408;13.356;2022-10-22T03:54:00;22.08;;;12.68;;
45762;SDS011;37512;52.408;13.356;2022-10-22T03:58:03;28.88;;;12.55;;
45762;SDS011;37512;52.408;13.356;2022-10-22T04:02:05;22.48;;;12.88;;
45762;SDS011;37512;52.408;13.356;2022-10-22T04:06:08;20.05;;;13.25;;
45762;SDS011;37512;52.408;13.356;2022-10-22T04:10:11;20.38;;;12.60;;
45762;SDS011;37512;52.408;13.356;2022-10-22T04:14:13;24.02;;;12.30;;
45762;SDS011;37512;52.408;13.356;2022-10-22T04:18:14;22.33;;;13.25;;
45762;SDS011;37512;52.408;13.356;2022-10-22T04:22:16;19.35;;;13.27;;
45762;SDS011;37512;52.408;13.356;2022-10-22T04:26:17;22.63;;;12.65;;
45762;SDS011;37512;52.408;13.356;2022-10-22T04:30:19;22.27;;;14.38;;
45762;SDS011;37512;52.408;13.356;2022-10-22T04:34:21;22.02;;;12.93;;
45762;SDS011;37512;52.408;13.356;2022-10-22T04:38:22;21.13;;;14.27;;
45762;SDS011;37512;52.408;13.356;2022-10-22T04:42:24;26.45;;;15.20;;
45762;SDS011;37512;52.408;13.356;2022-10-22T04:46:26;20.90;;;13.55;;
45762;SDS011;37512;52.408;13.356;2022-10-22T04:50:29;30.05;;;14.27;;
45762;SDS011;37512;52.408;13.356;2022-10-22T04:54:31;23.20;;;14.40;;
45762;SDS011;37512;52.408;13.356;2022-10-22T04:58:33;23.58;;;13.50;;
45762;SDS011;37512;52.408;13.356;2022-10-22T05:02:35;20.92;;;13.85;;
45762;SDS011;37512;52.408;13.356;2022-10-22T05:06:36;38.10;;;13.88;;
45762;SDS011;37512;52.408;13.356;2022-10-22T05:10:38;26.35;;;14.35;;
45762;SDS011;37512;52.408;13.356;2022-10-22T05:14:39;22.38;;;13.00;;
45762;SDS011;37512;52.408;13.356;2022-10-22T05:18:45;24.33;;;13.77;;
45762;SDS011;37512;52.408;13.356;2022-10-22T05:22:46;22.92;;;13.10;;
45762;SDS011;37512;52.408;13.356;2022-10-22T05:26:51;22.23;;;13.23;;
45762;SDS011;37512;52.408;13.356;2022-10-22T05:30:54;21.90;;;12.70;;
45762;SDS011;37512;52.408;13.356;2022-10-22T05:34:56;20.63;;;12.95;;
45762;SDS011;37512;52.408;13.356;2022-10-22T05:38:58;23.80;;;12.05;;
45762;SDS011;37512;52.408;13.356;2022-10-22T05:42:59;24.85;;;13.88;;
45762;SDS011;37512;52.408;13.356;2022-10-22T05:47:00;24.33;;;13.68;;
45762;SDS011;37512;52.408;13.356;2022-10-22T05:51:03;21.80;;;13.23;;
45762;SDS011;37512;52.408;13.356;2022-10-22T05:55:06;24.17;;;13.85;;
45762;SDS011;37512;52.408;13.356;2022-10-22T05:59:08;19.38;;;12.20;;
45762;SDS011;37512;52.408;13.356;2022-10-22T06:03:11;23.30;;;12.63;;
45762;SDS011;37512;52.408;13.356;2022-10-22T06:07:12;22.52;;;12.18;;
45762;SDS011;37512;52.408;13.356;2022-10-22T06:11:16;19.83;;;11.82;;
45762;SDS011;37512;52.408;13.356;2022-10-22T06:15:18;19.95;;;13.05;;
45762;SDS011;37512;52.408;13.356;2022-10-22T06:19:21;21.88;;;12.90;;
45762;SDS011;37512;52.408;13.356;2022-10-22T06:23:23;21.08;;;11.30;;
45762;SDS011;37512;52.408;13.356;2022-10-22T06:27:25;19.63;;;12.45;;
45762;SDS011;37512;52.408;13.356;2022-10-22T06:31:26;17.80;;;11.88;;
45762;SDS011;37512;52.408;13.356;2022-10-22T06:35:28;18.98;;;11.60;;
45762;SDS011;37512;52.408;13.356;2022-10-22T06:39:30;15.23;;;11.10;;
45762;SDS011;37512;52.408;13.356;2022-10-22T06:43:31;16.55;;;9.90;;
45762;SDS011;37512;52.408;13.356;2022-10-22T06:47:33;18.80;;;11.32;;
45762;SDS011;37512;52.408;13.356;2022-10-22T06:51:34;17.63;;;11.57;;
45762;SDS011;37512;52.408;13.356;2022-10-22T06:55:35;18.33;;;11.35;;
45762;SDS011;37512;52.408;13.356;2022-10-22T06:59:37;17.10;;;11.00;;
45762;SDS011;37512;52.408;13.356;2022-10-22T07:03:39;18.60;;;11.90;;
45762;SDS011;37512;52.408;13.356;2022-10-22T07:07:41;20.27;;;12.05;;
45762;SDS011;37512;52.408;13.356;2022-10-22T07:11:43;20.95;;;12.55;;
45762;SDS011;37512;52.408;13.356;2022-10-22T07:15:50;18.38;;;12.15;;
45762;SDS011;37512;52.408;13.356;2022-10-22T07:19:52;17.65;;;12.68;;
45762;SDS011;37512;52.408;13.356;2022-10-22T07:23:54;18.08;;;12.10;;
45762;SDS011;37512;52.408;13.356;2022-10-22T07:27:56;22.30;;;12.55;;
45762;SDS011;37512;52.408;13.356;2022-10-22T07:31:58;18.25;;;11.73;;
45762;SDS011;37512;52.408;13.356;2022-10-22T07:36:00;16.85;;;12.95;;
45762;SDS011;37512;52.408;13.356;2022-10-22T07:40:04;19.40;;;12.00;;
45762;SDS011;37512;52.408;13.356;2022-10-22T07:44:06;18.83;;;12.15;;
45762;SDS011;37512;52.408;13.356;2022-10-22T07:48:07;18.40;;;11.68;;
45762;SDS011;37512;52.408;13.356;2022-10-22T07:52:09;23.95;;;13.00;;
45762;SDS011;37512;52.408;13.356;2022-10-22T07:56:10;17.60;;;12.43;;
45762;SDS011;37512;52.408;13.356;2022-10-22T08:00:12;17.67;;;13.20;;
45762;SDS011;37512;52.408;13.356;2022-10-22T08:04:13;19.20;;;13.13;;
45762;SDS011;37512;52.408;13.356;2022-10-22T08:08:15;18.48;;;12.55;;
45762;SDS011;37512;52.408;13.356;2022-10-22T08:12:17;16.48;;;12.02;;
45762;SDS011;37512;52.408;13.356;2022-10-22T08:16:19;18.90;;;12.02;;
45762;SDS011;37512;52.408;13.356;2022-10-22T08:20:20;17.17;;;11.65;;
45762;SDS011;37512;52.408;13.356;2022-10-22T08:24:22;19.13;;;13.75;;
45762;SDS011;37512;52.408;13.356;2022-10-22T08:28:23;18.55;;;13.25;;
45762;SDS011;37512;52.408;13.356;2022-10-22T08:32:25;18.40;;;13.00;;
45762;SDS011;37512;52.408;13.356;2022-10-22T08:36:27;20.20;;;12.55;;
45762;SDS011;37512;52.408;13.356;2022-10-22T08:40:32;18.02;;;12.95;;
45762;SDS011;37512;52.408;13.356;2022-10-22T08:49:02;19.00;;;12.77;;
45762;SDS011;37512;52.408;13.356;2022-10-22T08:53:15;19.83;;;12.52;;
45762;SDS011;37512;52.408;13.356;2022-10-22T09:01:53;18.70;;;12.43;;
45762;SDS011;37512;52.408;13.356;2022-10-22T09:10:07;15.95;;;11.00;;
45762;SDS011;37512;52.408;13.356;2022-10-22T09:14:15;18.75;;;10.73;;
45762;SDS011;37512;52.408;13.356;2022-10-22T09:18:39;18.80;;;12.07;;
45762;SDS011;37512;52.408;13.356;2022-10-22T09:22:51;16.13;;;10.13;;
45762;SDS011;37512;52.408;13.356;2022-10-22T09:27:14;13.40;;;9.93;;
45762;SDS011;37512;52.408;13.356;2022-10-22T09:31:17;14.45;;;10.35;;
45762;SDS011;37512;52.408;13.356;2022-10-22T09:35:20;18.20;;;12.05;;
45762;SDS011;37512;52.408;13.356;2022-10-22T09:39:25;16.55;;;11.07;;
45762;SDS011;37512;52.408;13.356;2022-10-22T09:43:28;15.32;;;10.35;;
45762;SDS011;37512;52.408;13.356;2022-10-22T09:47:36;15.65;;;10.77;;
45762;SDS011;37512;52.408;13.356;2022-10-22T09:51:59;16.77;;;10.68;;
45762;SDS011;37512;52.408;13.356;2022-10-22T09:56:06;16.45;;;10.85;;
45762;SDS011;37512;52.408;13.356;2022-10-22T10:00:10;14.90;;;10.07;;
45762;SDS011;37512;52.408;13.356;2022-10-22T10:04:18;14.02;;;9.77;;
45762;SDS011;37512;52.408;13.356;2022-10-22T10:08:19;16.83;;;10.02;;
45762;SDS011;37512;52.408;13.356;2022-10-22T10:12:37;19.42;;;10.82;;
45762;SDS011;37512;52.408;13.356;2022-10-22T10:20:59;13.90;;;9.18;;
45762;SDS011;37512;52.408;13.356;2022-10-22T10:29:52;13.35;;;9.00;;
45762;SDS011;37512;52.408;13.356;2022-10-22T10:34:08;13.35;;;8.98;;
45762;SDS011;37512;52.408;13.356;2022-10-22T10:38:28;13.05;;;8.40;;
45762;SDS011;37512;52.408;13.356;2022-10-22T10:42:42;11.93;;;8.40;;
45762;SDS011;37512;52.408;13.356;2022-10-22T11:00:04;12.50;;;8.90;;
45762;SDS011;37512;52.408;13.356;2022-10-22T11:08:53;14.70;;;6.95;;
45762;SDS011;37512;52.408;13.356;2022-10-22T11:13:05;10.98;;;6.70;;
45762;SDS011;37512;52.408;13.356;2022-10-22T11:17:14;10.45;;;5.13;;
45762;SDS011;37512;52.408;13.356;2022-10-22T11:21:21;10.50;;;6.22;;
45762;SDS011;37512;52.408;13.356;2022-10-22T11:25:30;9.10;;;5.25;;
45762;SDS011;37512;52.408;13.356;2022-10-22T11:29:40;8.80;;;4.68;;
45762;SDS011;37512;52.408;13.356;2022-10-22T11:33:50;8.23;;;5.63;;
45762;SDS011;37512;52.408;13.356;2022-10-22T11:38:14;8.10;;;5.85;;
45762;SDS011;37512;52.408;13.356;2022-10-22T11:42:22;27.57;;;17.83;;
45762;SDS011;37512;52.408;13.356;2022-10-22T11:46:39;10.07;;;5.88;;
45762;SDS011;37512;52.408;13.356;2022-10-22T11:50:46;9.82;;;4.72;;
45762;SDS011;37512;52.408;13.356;2022-10-22T11:54:55;8.07;;;5.30;;
45762;SDS011;37512;52.408;13.356;2022-10-22T11:58:58;12.48;;;5.30;;
45762;SDS011;37512;52.408;13.356;2022-10-22T12:03:18;6.65;;;4.40;;
45762;SDS011;37512;52.408;13.356;2022-10-22T12:12:00;8.05;;;3.95;;
45762;SDS011;37512;52.408;13.356;2022-10-22T12:16:12;7.00;;;3.75;;
45762;SDS011;37512;52.408;13.356;2022-10-22T12:20:18;5.15;;;3.15;;
45762;SDS011;37512;52.408;13.356;2022-10-22T12:24:20;7.68;;;3.22;;
45762;SDS011;37512;52.408;13.356;2022-10-22T12:28:24;7.15;;;3.53;;
45762;SDS011;37512;52.408;13.356;2022-10-22T12:32:32;5.78;;;2.55;;
45762;SDS011;37512;52.408;13.356;2022-10-22T12:36:36;5.93;;;2.70;;
45762;SDS011;37512;52.408;13.356;2022-10-22T12:40:38;5.88;;;2.80;;
45762;SDS011;37512;52.408;13.356;2022-10-22T12:44:47;5.85;;;2.10;;
45762;SDS011;37512;52.408;13.356;2022-10-22T12:48:57;6.78;;;2.63;;
45762;SDS011;37512;52.408;13.356;2022-10-22T12:53:00;4.07;;;2.22;;
45762;SDS011;37512;52.408;13.356;2022-10-22T12:57:01;3.35;;;2.03;;
45762;SDS011;37512;52.408;13.356;2022-10-22T13:01:03;6.10;;;2.10;;
45762;SDS011;37512;52.408;13.356;2022-10-22T13:05:16;4.18;;;2.20;;
45762;SDS011;37512;52.408;13.356;2022-10-22T13:09:23;6.45;;;2.17;;
45762;SDS011;37512;52.408;13.356;2022-10-22T13:13:32;5.35;;;1.67;;
45762;SDS011;37512;52.408;13.356;2022-10-22T13:17:42;4.57;;;1.80;;
45762;SDS011;37512;52.408;13.356;2022-10-22T13:21:47;3.65;;;1.60;;
45762;SDS011;37512;52.408;13.356;2022-10-22T13:26:02;8.52;;;1.98;;
45762;SDS011;37512;52.408;13.356;2022-10-22T13:34:20;6.20;;;2.05;;
45762;SDS011;37512;52.408;13.356;2022-10-22T13:38:24;8.68;;;2.10;;
45762;SDS011;37512;52.408;13.356;2022-10-22T13:42:27;5.03;;;2.10;;
45762;SDS011;37512;52.408;13.356;2022-10-22T13:46:28;6.93;;;2.30;;
45762;SDS011;37512;52.408;13.356;2022-10-22T13:50:31;4.22;;;2.55;;
45762;SDS011;37512;52.408;13.356;2022-10-22T13:54:32;5.25;;;1.58;;
45762;SDS011;37512;52.408;13.356;2022-10-22T13:58:34;3.45;;;1.63;;
45762;SDS011;37512;52.408;13.356;2022-10-22T14:02:35;7.25;;;1.90;;
45762;SDS011;37512;52.408;13.356;2022-10-22T14:06:37;7.95;;;2.33;;
45762;SDS011;37512;52.408;13.356;2022-10-22T14:10:38;4.90;;;2.13;;
45762;SDS011;37512;52.408;13.356;2022-10-22T14:14:40;3.95;;;1.55;;
45762;SDS011;37512;52.408;13.356;2022-10-22T14:18:42;3.40;;;1.40;;
45762;SDS011;37512;52.408;13.356;2022-10-22T14:22:44;3.22;;;1.15;;
45762;SDS011;37512;52.408;13.356;2022-10-22T14:26:47;9.15;;;4.55;;
45762;SDS011;37512;52.408;13.356;2022-10-22T14:30:48;7.28;;;2.10;;
45762;SDS011;37512;52.408;13.356;2022-10-22T14:34:50;7.65;;;1.65;;
45762;SDS011;37512;52.408;13.356;2022-10-22T14:38:51;3.67;;;1.77;;
45762;SDS011;37512;52.408;13.356;2022-10-22T14:42:53;6.20;;;2.13;;
45762;SDS011;37512;52.408;13.356;2022-10-22T14:46:54;6.07;;;1.88;;
45762;SDS011;37512;52.408;13.356;2022-10-22T14:50:56;4.63;;;1.92;;
45762;SDS011;37512;52.408;13.356;2022-10-22T14:54:57;3.15;;;1.50;;
45762;SDS011;37512;52.408;13.356;2022-10-22T14:58:59;4.60;;;2.17;;
45762;SDS011;37512;52.408;13.356;2022-10-22T15:03:00;2.53;;;1.60;;
45762;SDS011;37512;52.408;13.356;2022-10-22T15:07:04;5.80;;;1.50;;
45762;SDS011;37512;52.408;13.356;2022-10-22T15:11:07;4.93;;;2.00;;
45762;SDS011;37512;52.408;13.356;2022-10-22T15:15:11;4.60;;;1.95;;
45762;SDS011;37512;52.408;13.356;2022-10-22T15:19:12;7.80;;;2.08;;
45762;SDS011;37512;52.408;13.356;2022-10-22T15:23:14;4.72;;;1.90;;
45762;SDS011;37512;52.408;13.356;2022-10-22T15:27:15;6.82;;;1.90;;
45762;SDS011;37512;52.408;13.356;2022-10-22T15:31:17;6.97;;;2.38;;
45762;SDS011;37512;52.408;13.356;2022-10-22T15:35:43;6.28;;;2.08;;
45762;SDS011;37512;52.408;13.356;2022-10-22T15:39:44;5.43;;;2.00;;
45762;SDS011;37512;52.408;13.356;2022-10-22T15:43:46;11.25;;;4.60;;
45762;SDS011;37512;52.408;13.356;2022-10-22T15:47:48;8.95;;;5.50;;
45762;SDS011;37512;52.408;13.356;2022-10-22T15:51:50;7.45;;;3.28;;
45762;SDS011;37512;52.408;13.356;2022-10-22T15:55:52;5.78;;;2.50;;
45762;SDS011;37512;52.408;13.356;2022-10-22T15:59:55;4.57;;;2.60;;
45762;SDS011;37512;52.408;13.356;2022-10-22T16:03:56;2.90;;;1.75;;
45762;SDS011;37512;52.408;13.356;2022-10-22T16:08:02;5.03;;;2.17;;
45762;SDS011;37512;52.408;13.356;2022-10-22T16:12:04;7.90;;;2.25;;
45762;SDS011;37512;52.408;13.356;2022-10-22T16:16:06;14.75;;;7.22;;
45762;SDS011;37512;52.408;13.356;2022-10-22T16:20:10;11.38;;;6.75;;
45762;SDS011;37512;52.408;13.356;2022-10-22T16:24:12;15.48;;;7.70;;
45762;SDS011;37512;52.408;13.356;2022-10-22T16:28:14;12.30;;;7.50;;
45762;SDS011;37512;52.408;13.356;2022-10-22T16:32:16;11.40;;;5.90;;
45762;SDS011;37512;52.408;13.356;2022-10-22T16:36:18;11.18;;;5.18;;
45762;SDS011;37512;52.408;13.356;2022-10-22T16:40:20;11.15;;;6.15;;
45762;SDS011;37512;52.408;13.356;2022-10-22T16:44:22;8.23;;;4.90;;
45762;SDS011;37512;52.408;13.356;2022-10-22T16:48:23;8.80;;;5.63;;
45762;SDS011;37512;52.408;13.356;2022-10-22T16:52:25;9.45;;;5.30;;
45762;SDS011;37512;52.408;13.356;2022-10-22T16:56:26;13.23;;;5.30;;
45762;SDS011;37512;52.408;13.356;2022-10-22T17:00:28;11.90;;;7.63;;
45762;SDS011;37512;52.408;13.356;2022-10-22T17:04:29;11.00;;;6.45;;
45762;SDS011;37512;52.408;13.356;2022-10-22T17:08:32;14.15;;;9.15;;
45762;SDS011;37512;52.408;13.356;2022-10-22T17:12:35;14.90;;;9.18;;
45762;SDS011;37512;52.408;13.356;2022-10-22T17:16:36;19.55;;;11.73;;
45762;SDS011;37512;52.408;13.356;2022-10-22T17:20:41;23.48;;;12.48;;
45762;SDS011;37512;52.408;13.356;2022-10-22T17:24:45;22.77;;;13.13;;
45762;SDS011;37512;52.408;13.356;2022-10-22T17:28:48;16.52;;;9.10;;
45762;SDS011;37512;52.408;13.356;2022-10-22T17:32:51;17.30;;;10.50;;
45762;SDS011;37512;52.408;13.356;2022-10-22T17:36:52;20.00;;;10.75;;
45762;SDS011;37512;52.408;13.356;2022-10-22T17:40:56;20.08;;;10.45;;
45762;SDS011;37512;52.408;13.356;2022-10-22T17:44:59;12.57;;;7.53;;
45762;SDS011;37512;52.408;13.356;2022-10-22T17:49:01;17.80;;;7.57;;
45762;SDS011;37512;52.408;13.356;2022-10-22T17:53:04;11.90;;;6.55;;
45762;SDS011;37512;52.408;13.356;2022-10-22T17:57:06;7.35;;;4.75;;
45762;SDS011;37512;52.408;13.356;2022-10-22T18:05:23;12.80;;;8.02;;
45762;SDS011;37512;52.408;13.356;2022-10-22T18:09:24;11.55;;;5.68;;
45762;SDS011;37512;52.408;13.356;2022-10-22T18:13:26;9.57;;;5.18;;
45762;SDS011;37512;52.408;13.356;2022-10-22T18:17:28;12.38;;;6.15;;
45762;SDS011;37512;52.408;13.356;2022-10-22T18:21:32;10.18;;;6.22;;
45762;SDS011;37512;52.408;13.356;2022-10-22T18:25:37;11.88;;;5.68;;
45762;SDS011;37512;52.408;13.356;2022-10-22T18:29:39;7.80;;;5.07;;
45762;SDS011;37512;52.408;13.356;2022-10-22T18:33:40;6.28;;;4.25;;
45762;SDS011;37512;52.408;13.356;2022-10-22T18:37:42;8.27;;;3.83;;
45762;SDS011;37512;52.408;13.356;2022-10-22T18:41:44;8.55;;;4.13;;
45762;SDS011;37512;52.408;13.356;2022-10-22T18:45:46;7.72;;;4.45;;
45762;SDS011;37512;52.408;13.356;2022-10-22T18:49:48;5.75;;;4.00;;
45762;SDS011;37512;52.408;13.356;2022-10-22T18:53:54;6.93;;;4.53;;
45762;SDS011;37512;52.408;13.356;2022-10-22T18:58:11;6.60;;;4.15;;
45762;SDS011;37512;52.408;13.356;2022-10-22T19:02:13;6.93;;;3.55;;
45762;SDS011;37512;52.408;13.356;2022-10-22T19:06:17;6.05;;;4.40;;
45762;SDS011;37512;52.408;13.356;2022-10-22T19:10:46;7.25;;;4.20;;
45762;SDS011;37512;52.408;13.356;2022-10-22T19:14:48;6.28;;;3.28;;
45762;SDS011;37512;52.408;13.356;2022-10-22T19:18:50;4.35;;;2.92;;
45762;SDS011;37512;52.408;13.356;2022-10-22T19:22:53;4.82;;;3.70;;
45762;SDS011;37512;52.408;13.356;2022-10-22T19:26:56;7.85;;;3.85;;
45762;SDS011;37512;52.408;13.356;2022-10-22T19:30:57;8.20;;;4.60;;
45762;SDS011;37512;52.408;13.356;2022-10-22T19:35:00;7.60;;;5.07;;
45762;SDS011;37512;52.408;13.356;2022-10-22T19:39:02;6.95;;;5.28;;
45762;SDS011;37512;52.408;13.356;2022-10-22T19:43:04;10.80;;;6.90;;
45762;SDS011;37512;52.408;13.356;2022-10-22T19:47:06;9.55;;;6.40;;
45762;SDS011;37512;52.408;13.356;2022-10-22T19:51:09;13.77;;;6.47;;
45762;SDS011;37512;52.408;13.356;2022-10-22T19:55:14;7.68;;;4.47;;
45762;SDS011;37512;52.408;13.356;2022-10-22T19:59:17;6.47;;;4.35;;
45762;SDS011;37512;52.408;13.356;2022-10-22T20:03:22;5.50;;;4.38;;
45762;SDS011;37512;52.408;13.356;2022-10-22T20:07:24;7.40;;;5.53;;
45762;SDS011;37512;52.408;13.356;2022-10-22T20:11:27;11.77;;;5.63;;
45762;SDS011;37512;52.408;13.356;2022-10-22T20:15:30;10.88;;;5.68;;
45762;SDS011;37512;52.408;13.356;2022-10-22T20:19:32;9.27;;;6.63;;
45762;SDS011;37512;52.408;13.356;2022-10-22T20:23:34;7.97;;;5.95;;
45762;SDS011;37512;52.408;13.356;2022-10-22T20:27:35;8.70;;;5.80;;
45762;SDS011;37512;52.408;13.356;2022-10-22T20:31:38;9.18;;;5.30;;
45762;SDS011;37512;52.408;13.356;2022-10-22T20:35:39;11.38;;;5.65;;
45762;SDS011;37512;52.408;13.356;2022-10-22T20:39:41;11.70;;;5.63;;
45762;SDS011;37512;52.408;13.356;2022-10-22T20:43:43;9.68;;;5.57;;
45762;SDS011;37512;52.408;13.356;2022-10-22T20:47:45;7.55;;;5.22;;
45762;SDS011;37512;52.408;13.356;2022-10-22T20:51:58;6.45;;;4.97;;
45762;SDS011;37512;52.408;13.356;2022-10-22T20:56:00;8.43;;;4.15;;
45762;SDS011;37512;52.408;13.356;2022-10-22T21:00:01;10.50;;;4.78;;
45762;SDS011;37512;52.408;13.356;2022-10-22T21:04:04;9.38;;;5.13;;
45762;SDS011;37512;52.408;13.356;2022-10-22T21:08:06;11.07;;;4.47;;
45762;SDS011;37512;52.408;13.356;2022-10-22T21:12:07;9.20;;;4.70;;
45762;SDS011;37512;52.408;13.356;2022-10-22T21:16:10;10.18;;;5.60;;
45762;SDS011;37512;52.408;13.356;2022-10-22T21:20:13;11.20;;;4.75;;
45762;SDS011;37512;52.408;13.356;2022-10-22T21:24:14;7.63;;;4.90;;
45762;SDS011;37512;52.408;13.356;2022-10-22T21:28:16;7.53;;;4.28;;
45762;SDS011;37512;52.408;13.356;2022-10-22T21:32:17;10.02;;;5.10;;
45762;SDS011;37512;52.408;13.356;2022-10-22T21:36:19;7.70;;;5.18;;
45762;SDS011;37512;52.408;13.356;2022-10-22T21:40:23;8.63;;;5.38;;
45762;SDS011;37512;52.408;13.356;2022-10-22T21:44:25;10.98;;;5.20;;
45762;SDS011;37512;52.408;13.356;2022-10-22T21:48:26;8.52;;;4.75;;
45762;SDS011;37512;52.408;13.356;2022-10-22T21:52:27;9.38;;;4.88;;
45762;SDS011;37512;52.408;13.356;2022-10-22T21:56:30;14.80;;;5.07;;
45762;SDS011;37512;52.408;13.356;2022-10-22T22:00:34;8.85;;;4.60;;
45762;SDS011;37512;52.408;13.356;2022-10-22T22:04:35;5.38;;;4.25;;
45762;SDS011;37512;52.408;13.356;2022-10-22T22:08:37;9.77;;;4.65;;
45762;SDS011;37512;52.408;13.356;2022-10-22T22:12:39;6.25;;;4.20;;
45762;SDS011;37512;52.408;13.356;2022-10-22T22:16:41;7.35;;;4.75;;
45762;SDS011;37512;52.408;13.356;2022-10-22T22:20:42;7.90;;;4.10;;
45762;SDS011;37512;52.408;13.356;2022-10-22T22:24:44;9.15;;;4.43;;
45762;SDS011;37512;52.408;13.356;2022-10-22T22:28:45;8.23;;;3.83;;
45762;SDS011;37512;52.408;13.356;2022-10-22T22:32:47;5.47;;;3.95;;
45762;SDS011;37512;52.408;13.356;2022-10-22T22:36:48;9.70;;;4.50;;
45762;SDS011;37512;52.408;13.356;2022-10-22T22:40:50;9.45;;;5.20;;
45762;SDS011;37512;52.408;13.356;2022-10-22T22:44:51;7.35;;;5.22;;
45762;SDS011;37512;52.408;13.356;2022-10-22T22:48:53;13.68;;;4.88;;
45762;SDS011;37512;52.408;13.356;2022-10-22T22:52:54;7.70;;;4.55;;
45762;SDS011;37512;52.408;13.356;2022-10-22T22:56:56;7.55;;;4.75;;
45762;SDS011;37512;52.408;13.356;2022-10-22T23:05:19;7.90;;;5.22;;
45762;SDS011;37512;52.408;13.356;2022-10-22T23:09:20;7.95;;;4.90;;
45762;SDS011;37512;52.408;13.356;2022-10-22T23:13:22;5.93;;;4.57;;
45762;SDS011;37512;52.408;13.356;2022-10-22T23:17:23;8.43;;;5.30;;
45762;SDS011;37512;52.408;13.356;2022-10-22T23:21:35;8.00;;;5.00;;
45762;SDS011;37512;52.408;13.356;2022-10-22T23:25:39;9.98;;;5.50;;
45762;SDS011;37512;52.408;13.356;2022-10-22T23:29:40;9.90;;;5.13;;
45762;SDS011;37512;52.408;13.356;2022-10-22T23:33:42;12.30;;;5.43;;
45762;SDS011;37512;52.408;13.356;2022-10-22T23:37:43;9.82;;;5.32;;
45762;SDS011;37512;52.408;13.356;2022-10-22T23:41:45;8.40;;;5.35;;
45762;SDS011;37512;52.408;13.356;2022-10-22T23:45:47;10.25;;;5.90;;
45762;SDS011;37512;52.408;13.356;2022-10-22T23:49:48;9.00;;;5.50;;
45762;SDS011;37512;52.408;13.356;2022-10-22T23:53:54;8.75;;;6.18;;
45762;SDS011;37512;52.408;13.356;2022-10-22T23:57:57;8.82;;;6.28;;
